sensor_id;sensor_type;location;lat;lon;timestamp;temperature;humidity
40516;DHT22;26216;53.724;9.898;2023-02-28T00:00:47;6.00;95.90
40516;DHT22;26216;53.724;9.898;2023-02-28T00:03:13;5.90;95.90
40516;DHT22;26216;53.724;9.898;2023-02-28T00:05:39;5.90;95.90
40516;DHT22;26216;53.724;9.898;2023-02-28T00:08:04;5.90;95.90
40516;DHT22;26216;53.724;9.898;2023-02-28T00:10:31;5.90;95.90
40516;DHT22;26216;53.724;9.898;2023-02-28T00:13:05;5.90;96.00
40516;DHT22;26216;53.724;9.898;2023-02-28T00:15:32;5.90;96.00
40516;DHT22;26216;53.724;9.898;2023-02-28T00:17:58;5.90;96.00
40516;DHT22;26216;53.724;9.898;2023-02-28T00:20:24;5.90;96.00
40516;DHT22;26216;53.724;9.898;2023-02-28T00:22:52;5.90;96.00
40516;DHT22;26216;53.724;9.898;2023-02-28T00:25:20;5.80;96.10
40516;DHT22;26216;53.724;9.898;2023-02-28T00:27:47;5.80;96.10
40516;DHT22;26216;53.724;9.898;2023-02-28T00:30:21;5.80;96.10
40516;DHT22;26216;53.724;9.898;2023-02-28T00:32:48;5.80;96.10
40516;DHT22;26216;53.724;9.898;2023-02-28T00:35:15;5.80;96.10
40516;DHT22;26216;53.724;9.898;2023-02-28T00:37:41;5.80;96.10
40516;DHT22;26216;53.724;9.898;2023-02-28T00:40:07;5.80;96.20
40516;DHT22;26216;53.724;9.898;2023-02-28T00:42:34;5.80;96.20
40516;DHT22;26216;53.724;9.898;2023-02-28T00:45:00;5.80;96.20
40516;DHT22;26216;53.724;9.898;2023-02-28T00:47:26;5.80;96.30
40516;DHT22;26216;53.724;9.898;2023-02-28T00:49:52;5.80;96.30
40516;DHT22;26216;53.724;9.898;2023-02-28T00:52:18;5.80;96.30
40516;DHT22;26216;53.724;9.898;2023-02-28T00:54:44;5.80;96.30
40516;DHT22;26216;53.724;9.898;2023-02-28T00:57:09;5.80;96.30
40516;DHT22;26216;53.724;9.898;2023-02-28T00:59:35;5.80;96.30
40516;DHT22;26216;53.724;9.898;2023-02-28T01:02:01;5.80;96.30
40516;DHT22;26216;53.724;9.898;2023-02-28T01:04:27;5.70;96.30
40516;DHT22;26216;53.724;9.898;2023-02-28T01:06:53;5.80;96.30
40516;DHT22;26216;53.724;9.898;2023-02-28T01:09:18;5.70;96.30
40516;DHT22;26216;53.724;9.898;2023-02-28T01:11:44;5.70;96.30
40516;DHT22;26216;53.724;9.898;2023-02-28T01:14:15;5.70;96.30
40516;DHT22;26216;53.724;9.898;2023-02-28T01:16:41;5.70;96.30
40516;DHT22;26216;53.724;9.898;2023-02-28T01:19:07;5.70;96.30
40516;DHT22;26216;53.724;9.898;2023-02-28T01:21:33;5.70;96.30
40516;DHT22;26216;53.724;9.898;2023-02-28T01:24:00;5.70;96.30
40516;DHT22;26216;53.724;9.898;2023-02-28T01:26:26;5.70;96.30
40516;DHT22;26216;53.724;9.898;2023-02-28T01:28:52;5.70;96.30
40516;DHT22;26216;53.724;9.898;2023-02-28T01:31:19;5.60;96.30
40516;DHT22;26216;53.724;9.898;2023-02-28T01:33:46;5.60;96.60
40516;DHT22;26216;53.724;9.898;2023-02-28T01:36:23;5.60;96.40
40516;DHT22;26216;53.724;9.898;2023-02-28T01:38:49;5.60;96.40
40516;DHT22;26216;53.724;9.898;2023-02-28T01:41:21;5.60;96.40
40516;DHT22;26216;53.724;9.898;2023-02-28T01:46:13;5.50;96.40
40516;DHT22;26216;53.724;9.898;2023-02-28T01:48:53;5.50;96.40
40516;DHT22;26216;53.724;9.898;2023-02-28T01:51:31;5.60;96.50
40516;DHT22;26216;53.724;9.898;2023-02-28T01:54:02;5.50;96.50
40516;DHT22;26216;53.724;9.898;2023-02-28T01:56:34;5.50;96.50
40516;DHT22;26216;53.724;9.898;2023-02-28T01:59:01;5.50;96.60
40516;DHT22;26216;53.724;9.898;2023-02-28T02:01:28;5.50;96.50
40516;DHT22;26216;53.724;9.898;2023-02-28T02:03:57;5.50;96.50
40516;DHT22;26216;53.724;9.898;2023-02-28T02:06:40;5.40;96.40
40516;DHT22;26216;53.724;9.898;2023-02-28T02:09:07;5.50;96.50
40516;DHT22;26216;53.724;9.898;2023-02-28T02:11:34;5.40;96.40
40516;DHT22;26216;53.724;9.898;2023-02-28T02:30:10;5.40;96.60
40516;DHT22;26216;53.724;9.898;2023-02-28T02:35:57;5.30;96.50
40516;DHT22;26216;53.724;9.898;2023-02-28T02:38:36;5.30;96.40
40516;DHT22;26216;53.724;9.898;2023-02-28T02:41:36;5.30;96.40
40516;DHT22;26216;53.724;9.898;2023-02-28T02:46:41;5.20;96.30
40516;DHT22;26216;53.724;9.898;2023-02-28T02:49:10;5.20;96.30
40516;DHT22;26216;53.724;9.898;2023-02-28T02:51:39;5.20;96.40
40516;DHT22;26216;53.724;9.898;2023-02-28T02:54:11;5.20;96.40
40516;DHT22;26216;53.724;9.898;2023-02-28T02:56:42;5.20;96.40
40516;DHT22;26216;53.724;9.898;2023-02-28T02:59:12;5.20;96.70
40516;DHT22;26216;53.724;9.898;2023-02-28T03:01:40;5.20;96.40
40516;DHT22;26216;53.724;9.898;2023-02-28T03:04:18;5.20;96.50
40516;DHT22;26216;53.724;9.898;2023-02-28T03:06:44;5.20;96.50
40516;DHT22;26216;53.724;9.898;2023-02-28T03:09:10;5.20;96.50
40516;DHT22;26216;53.724;9.898;2023-02-28T03:11:37;5.20;96.50
40516;DHT22;26216;53.724;9.898;2023-02-28T03:20:12;5.20;96.50
40516;DHT22;26216;53.724;9.898;2023-02-28T03:23:16;5.20;96.50
40516;DHT22;26216;53.724;9.898;2023-02-28T03:26:11;5.10;96.40
40516;DHT22;26216;53.724;9.898;2023-02-28T03:29:01;5.10;96.40
40516;DHT22;26216;53.724;9.898;2023-02-28T03:31:40;5.10;96.40
40516;DHT22;26216;53.724;9.898;2023-02-28T03:34:17;5.10;96.40
40516;DHT22;26216;53.724;9.898;2023-02-28T03:36:48;5.10;96.40
40516;DHT22;26216;53.724;9.898;2023-02-28T03:39:34;5.10;96.30
40516;DHT22;26216;53.724;9.898;2023-02-28T03:42:07;5.00;96.30
40516;DHT22;26216;53.724;9.898;2023-02-28T03:44:38;5.00;96.20
40516;DHT22;26216;53.724;9.898;2023-02-28T03:49:53;4.90;96.20
40516;DHT22;26216;53.724;9.898;2023-02-28T03:52:22;4.90;96.20
40516;DHT22;26216;53.724;9.898;2023-02-28T03:54:57;4.90;96.10
40516;DHT22;26216;53.724;9.898;2023-02-28T03:57:36;4.80;96.10
40516;DHT22;26216;53.724;9.898;2023-02-28T04:00:07;4.80;96.00
40516;DHT22;26216;53.724;9.898;2023-02-28T04:02:34;4.70;96.00
40516;DHT22;26216;53.724;9.898;2023-02-28T04:05:00;4.70;96.10
40516;DHT22;26216;53.724;9.898;2023-02-28T04:07:29;4.70;96.10
40516;DHT22;26216;53.724;9.898;2023-02-28T04:09:55;4.60;96.10
40516;DHT22;26216;53.724;9.898;2023-02-28T04:12:21;4.60;96.10
40516;DHT22;26216;53.724;9.898;2023-02-28T04:14:49;4.50;96.00
40516;DHT22;26216;53.724;9.898;2023-02-28T04:17:15;4.50;96.00
40516;DHT22;26216;53.724;9.898;2023-02-28T04:19:41;4.50;96.00
40516;DHT22;26216;53.724;9.898;2023-02-28T04:22:08;4.40;96.00
40516;DHT22;26216;53.724;9.898;2023-02-28T04:24:34;4.40;96.00
40516;DHT22;26216;53.724;9.898;2023-02-28T04:26:59;4.30;96.00
40516;DHT22;26216;53.724;9.898;2023-02-28T04:29:30;4.30;95.90
40516;DHT22;26216;53.724;9.898;2023-02-28T04:31:58;4.20;95.90
40516;DHT22;26216;53.724;9.898;2023-02-28T04:34:29;4.10;95.80
40516;DHT22;26216;53.724;9.898;2023-02-28T04:36:56;4.10;95.80
40516;DHT22;26216;53.724;9.898;2023-02-28T04:39:23;4.00;95.90
40516;DHT22;26216;53.724;9.898;2023-02-28T04:41:49;4.00;95.90
40516;DHT22;26216;53.724;9.898;2023-02-28T04:44:16;3.90;96.00
40516;DHT22;26216;53.724;9.898;2023-02-28T04:46:42;3.90;96.00
40516;DHT22;26216;53.724;9.898;2023-02-28T04:49:12;3.90;96.10
40516;DHT22;26216;53.724;9.898;2023-02-28T04:51:38;3.80;96.10
40516;DHT22;26216;53.724;9.898;2023-02-28T04:54:04;3.80;96.20
40516;DHT22;26216;53.724;9.898;2023-02-28T04:56:30;3.70;96.20
40516;DHT22;26216;53.724;9.898;2023-02-28T04:58:56;3.70;96.20
40516;DHT22;26216;53.724;9.898;2023-02-28T05:01:24;3.70;96.30
40516;DHT22;26216;53.724;9.898;2023-02-28T05:03:52;3.60;96.30
40516;DHT22;26216;53.724;9.898;2023-02-28T05:06:22;3.60;96.30
40516;DHT22;26216;53.724;9.898;2023-02-28T05:08:49;3.60;96.30
40516;DHT22;26216;53.724;9.898;2023-02-28T05:11:21;3.60;96.30
40516;DHT22;26216;53.724;9.898;2023-02-28T05:13:47;3.60;96.30
40516;DHT22;26216;53.724;9.898;2023-02-28T05:16:14;3.50;96.30
40516;DHT22;26216;53.724;9.898;2023-02-28T05:18:40;3.50;96.30
40516;DHT22;26216;53.724;9.898;2023-02-28T05:21:12;3.40;96.30
40516;DHT22;26216;53.724;9.898;2023-02-28T05:23:49;3.40;96.30
40516;DHT22;26216;53.724;9.898;2023-02-28T05:26:14;3.30;96.20
40516;DHT22;26216;53.724;9.898;2023-02-28T05:28:40;3.30;96.30
40516;DHT22;26216;53.724;9.898;2023-02-28T05:31:07;3.30;96.30
40516;DHT22;26216;53.724;9.898;2023-02-28T05:33:33;3.20;96.30
40516;DHT22;26216;53.724;9.898;2023-02-28T05:35:59;3.20;96.60
40516;DHT22;26216;53.724;9.898;2023-02-28T05:38:24;3.20;96.40
40516;DHT22;26216;53.724;9.898;2023-02-28T05:40:50;3.20;96.40
40516;DHT22;26216;53.724;9.898;2023-02-28T05:43:16;3.10;96.30
40516;DHT22;26216;53.724;9.898;2023-02-28T05:45:41;3.10;96.60
40516;DHT22;26216;53.724;9.898;2023-02-28T05:48:08;3.10;96.40
40516;DHT22;26216;53.724;9.898;2023-02-28T05:50:33;3.00;96.60
40516;DHT22;26216;53.724;9.898;2023-02-28T05:52:59;3.00;96.40
40516;DHT22;26216;53.724;9.898;2023-02-28T05:55:25;3.00;96.50
40516;DHT22;26216;53.724;9.898;2023-02-28T05:57:51;2.90;96.40
40516;DHT22;26216;53.724;9.898;2023-02-28T06:00:17;2.90;96.50
40516;DHT22;26216;53.724;9.898;2023-02-28T06:02:43;2.90;96.50
40516;DHT22;26216;53.724;9.898;2023-02-28T06:05:18;2.80;96.50
40516;DHT22;26216;53.724;9.898;2023-02-28T06:07:44;2.80;96.60
40516;DHT22;26216;53.724;9.898;2023-02-28T06:10:11;2.80;96.60
40516;DHT22;26216;53.724;9.898;2023-02-28T06:12:37;2.80;96.60
40516;DHT22;26216;53.724;9.898;2023-02-28T06:22:45;2.70;96.70
40516;DHT22;26216;53.724;9.898;2023-02-28T06:25:11;2.60;96.70
40516;DHT22;26216;53.724;9.898;2023-02-28T06:27:37;2.60;96.70
40516;DHT22;26216;53.724;9.898;2023-02-28T06:30:03;2.60;96.80
40516;DHT22;26216;53.724;9.898;2023-02-28T06:32:28;2.60;96.90
40516;DHT22;26216;53.724;9.898;2023-02-28T06:34:54;2.60;96.90
40516;DHT22;26216;53.724;9.898;2023-02-28T06:37:22;2.50;96.90
40516;DHT22;26216;53.724;9.898;2023-02-28T06:39:52;2.50;97.00
40516;DHT22;26216;53.724;9.898;2023-02-28T06:42:17;2.50;97.00
40516;DHT22;26216;53.724;9.898;2023-02-28T06:44:43;2.50;97.10
40516;DHT22;26216;53.724;9.898;2023-02-28T06:47:09;2.50;97.10
40516;DHT22;26216;53.724;9.898;2023-02-28T06:49:35;2.50;97.20
40516;DHT22;26216;53.724;9.898;2023-02-28T06:52:02;2.50;97.20
40516;DHT22;26216;53.724;9.898;2023-02-28T06:54:28;2.60;97.30
40516;DHT22;26216;53.724;9.898;2023-02-28T06:56:54;2.60;97.40
40516;DHT22;26216;53.724;9.898;2023-02-28T06:59:20;2.60;97.40
40516;DHT22;26216;53.724;9.898;2023-02-28T07:01:45;2.60;97.40
40516;DHT22;26216;53.724;9.898;2023-02-28T07:04:11;2.60;97.50
40516;DHT22;26216;53.724;9.898;2023-02-28T07:06:39;2.60;97.50
40516;DHT22;26216;53.724;9.898;2023-02-28T07:09:05;2.60;97.50
40516;DHT22;26216;53.724;9.898;2023-02-28T07:11:31;2.60;97.60
40516;DHT22;26216;53.724;9.898;2023-02-28T07:13:57;2.70;97.60
40516;DHT22;26216;53.724;9.898;2023-02-28T07:16:24;2.70;97.70
40516;DHT22;26216;53.724;9.898;2023-02-28T07:18:53;2.70;97.70
40516;DHT22;26216;53.724;9.898;2023-02-28T07:21:19;2.70;97.70
40516;DHT22;26216;53.724;9.898;2023-02-28T07:23:45;2.80;97.80
40516;DHT22;26216;53.724;9.898;2023-02-28T07:26:13;2.80;97.80
40516;DHT22;26216;53.724;9.898;2023-02-28T07:28:41;2.80;97.80
40516;DHT22;26216;53.724;9.898;2023-02-28T07:31:08;2.90;98.00
40516;DHT22;26216;53.724;9.898;2023-02-28T07:33:35;2.90;97.90
40516;DHT22;26216;53.724;9.898;2023-02-28T07:36:03;2.90;98.00
40516;DHT22;26216;53.724;9.898;2023-02-28T07:38:29;3.00;98.00
40516;DHT22;26216;53.724;9.898;2023-02-28T07:40:55;3.00;98.00
40516;DHT22;26216;53.724;9.898;2023-02-28T07:43:21;3.00;98.10
40516;DHT22;26216;53.724;9.898;2023-02-28T07:45:47;3.10;98.10
40516;DHT22;26216;53.724;9.898;2023-02-28T07:48:13;3.20;98.10
40516;DHT22;26216;53.724;9.898;2023-02-28T07:50:38;3.20;98.40
40516;DHT22;26216;53.724;9.898;2023-02-28T07:53:04;3.30;98.20
40516;DHT22;26216;53.724;9.898;2023-02-28T07:55:30;3.30;98.20
40516;DHT22;26216;53.724;9.898;2023-02-28T07:57:57;3.40;98.30
40516;DHT22;26216;53.724;9.898;2023-02-28T08:00:24;3.50;98.30
40516;DHT22;26216;53.724;9.898;2023-02-28T08:02:50;3.50;98.30
40516;DHT22;26216;53.724;9.898;2023-02-28T08:05:16;3.60;98.30
40516;DHT22;26216;53.724;9.898;2023-02-28T08:07:42;3.60;98.30
40516;DHT22;26216;53.724;9.898;2023-02-28T08:10:08;3.70;98.30
40516;DHT22;26216;53.724;9.898;2023-02-28T08:12:35;3.80;98.60
40516;DHT22;26216;53.724;9.898;2023-02-28T08:15:01;3.90;98.30
40516;DHT22;26216;53.724;9.898;2023-02-28T08:17:27;3.90;98.30
40516;DHT22;26216;53.724;9.898;2023-02-28T08:19:52;4.00;98.50
40516;DHT22;26216;53.724;9.898;2023-02-28T08:22:18;4.10;98.20
40516;DHT22;26216;53.724;9.898;2023-02-28T08:24:44;4.10;98.20
40516;DHT22;26216;53.724;9.898;2023-02-28T08:27:10;4.20;98.10
40516;DHT22;26216;53.724;9.898;2023-02-28T08:29:39;4.30;98.10
40516;DHT22;26216;53.724;9.898;2023-02-28T08:32:06;4.40;98.10
40516;DHT22;26216;53.724;9.898;2023-02-28T08:34:32;4.40;98.00
40516;DHT22;26216;53.724;9.898;2023-02-28T08:36:58;4.50;98.00
40516;DHT22;26216;53.724;9.898;2023-02-28T08:39:24;4.60;98.00
40516;DHT22;26216;53.724;9.898;2023-02-28T08:41:50;4.70;97.90
40516;DHT22;26216;53.724;9.898;2023-02-28T08:44:16;4.80;97.90
40516;DHT22;26216;53.724;9.898;2023-02-28T08:46:42;4.80;97.70
40516;DHT22;26216;53.724;9.898;2023-02-28T08:49:10;4.90;97.60
40516;DHT22;26216;53.724;9.898;2023-02-28T08:51:36;4.90;97.60
40516;DHT22;26216;53.724;9.898;2023-02-28T08:54:02;5.00;97.60
40516;DHT22;26216;53.724;9.898;2023-02-28T08:56:28;5.10;97.60
40516;DHT22;26216;53.724;9.898;2023-02-28T08:58:55;5.20;97.00
40516;DHT22;26216;53.724;9.898;2023-02-28T09:01:26;5.20;97.10
40516;DHT22;26216;53.724;9.898;2023-02-28T09:03:53;5.30;97.30
40516;DHT22;26216;53.724;9.898;2023-02-28T09:06:21;5.40;97.30
40516;DHT22;26216;53.724;9.898;2023-02-28T09:08:47;5.50;97.10
40516;DHT22;26216;53.724;9.898;2023-02-28T09:11:13;5.60;97.10
40516;DHT22;26216;53.724;9.898;2023-02-28T09:13:39;5.70;97.20
40516;DHT22;26216;53.724;9.898;2023-02-28T09:16:07;5.70;97.20
40516;DHT22;26216;53.724;9.898;2023-02-28T09:18:35;5.80;97.10
40516;DHT22;26216;53.724;9.898;2023-02-28T09:21:07;5.90;96.80
40516;DHT22;26216;53.724;9.898;2023-02-28T09:23:34;6.00;97.00
40516;DHT22;26216;53.724;9.898;2023-02-28T09:26:00;6.10;96.10
40516;DHT22;26216;53.724;9.898;2023-02-28T09:28:25;6.10;96.30
40516;DHT22;26216;53.724;9.898;2023-02-28T09:30:53;6.20;96.30
40516;DHT22;26216;53.724;9.898;2023-02-28T09:33:21;6.30;96.00
40516;DHT22;26216;53.724;9.898;2023-02-28T09:35:50;6.40;96.30
40516;DHT22;26216;53.724;9.898;2023-02-28T09:38:17;6.50;96.40
40516;DHT22;26216;53.724;9.898;2023-02-28T09:40:52;6.50;96.00
40516;DHT22;26216;53.724;9.898;2023-02-28T09:43:21;6.60;95.50
40516;DHT22;26216;53.724;9.898;2023-02-28T09:46:18;6.70;95.70
40516;DHT22;26216;53.724;9.898;2023-02-28T09:48:48;6.80;95.50
40516;DHT22;26216;53.724;9.898;2023-02-28T09:51:51;6.80;95.40
40516;DHT22;26216;53.724;9.898;2023-02-28T09:54:22;6.90;93.50
40516;DHT22;26216;53.724;9.898;2023-02-28T09:56:54;7.00;94.80
40516;DHT22;26216;53.724;9.898;2023-02-28T10:05:00;7.20;95.30
40516;DHT22;26216;53.724;9.898;2023-02-28T10:09:56;7.40;95.00
40516;DHT22;26216;53.724;9.898;2023-02-28T10:12:24;7.50;94.80
40516;DHT22;26216;53.724;9.898;2023-02-28T10:14:52;7.50;94.50
40516;DHT22;26216;53.724;9.898;2023-02-28T10:17:24;7.60;94.80
40516;DHT22;26216;53.724;9.898;2023-02-28T10:20:07;7.70;94.40
40516;DHT22;26216;53.724;9.898;2023-02-28T10:22:56;7.80;93.70
40516;DHT22;26216;53.724;9.898;2023-02-28T10:25:25;7.80;93.30
40516;DHT22;26216;53.724;9.898;2023-02-28T10:28:21;7.90;93.30
40516;DHT22;26216;53.724;9.898;2023-02-28T10:30:49;8.00;92.40
40516;DHT22;26216;53.724;9.898;2023-02-28T10:33:32;8.00;92.40
40516;DHT22;26216;53.724;9.898;2023-02-28T10:36:00;8.00;92.60
40516;DHT22;26216;53.724;9.898;2023-02-28T10:38:31;8.10;91.80
40516;DHT22;26216;53.724;9.898;2023-02-28T10:41:13;8.10;92.60
40516;DHT22;26216;53.724;9.898;2023-02-28T10:43:41;8.20;92.40
40516;DHT22;26216;53.724;9.898;2023-02-28T10:48:38;8.20;91.90
40516;DHT22;26216;53.724;9.898;2023-02-28T10:51:09;8.30;92.80
40516;DHT22;26216;53.724;9.898;2023-02-28T10:58:47;8.40;92.70
40516;DHT22;26216;53.724;9.898;2023-02-28T11:03:52;8.50;92.80
40516;DHT22;26216;53.724;9.898;2023-02-28T11:06:22;8.60;92.80
40516;DHT22;26216;53.724;9.898;2023-02-28T11:08:52;8.60;91.90
40516;DHT22;26216;53.724;9.898;2023-02-28T11:11:19;8.70;92.50
40516;DHT22;26216;53.724;9.898;2023-02-28T11:13:46;8.80;92.60
40516;DHT22;26216;53.724;9.898;2023-02-28T11:16:14;8.80;91.80
40516;DHT22;26216;53.724;9.898;2023-02-28T11:18:46;8.90;91.70
40516;DHT22;26216;53.724;9.898;2023-02-28T11:21:25;8.90;91.50
40516;DHT22;26216;53.724;9.898;2023-02-28T11:24:05;9.00;91.70
40516;DHT22;26216;53.724;9.898;2023-02-28T11:26:43;9.00;92.00
40516;DHT22;26216;53.724;9.898;2023-02-28T11:29:25;9.10;92.10
40516;DHT22;26216;53.724;9.898;2023-02-28T11:32:13;9.20;92.00
40516;DHT22;26216;53.724;9.898;2023-02-28T11:34:42;9.20;91.50
40516;DHT22;26216;53.724;9.898;2023-02-28T11:37:14;9.30;91.80
40516;DHT22;26216;53.724;9.898;2023-02-28T11:39:42;9.30;91.80
40516;DHT22;26216;53.724;9.898;2023-02-28T11:51:15;9.50;90.80
40516;DHT22;26216;53.724;9.898;2023-02-28T11:53:53;9.50;91.10
40516;DHT22;26216;53.724;9.898;2023-02-28T12:04:52;9.70;90.60
40516;DHT22;26216;53.724;9.898;2023-02-28T12:07:25;9.70;90.90
40516;DHT22;26216;53.724;9.898;2023-02-28T12:10:04;9.70;91.20
40516;DHT22;26216;53.724;9.898;2023-02-28T12:12:40;9.80;91.30
40516;DHT22;26216;53.724;9.898;2023-02-28T12:18:12;9.90;90.30
40516;DHT22;26216;53.724;9.898;2023-02-28T12:29:22;10.00;82.40
40516;DHT22;26216;53.724;9.898;2023-02-28T12:32:04;10.00;84.00
40516;DHT22;26216;53.724;9.898;2023-02-28T12:34:41;10.00;86.80
40516;DHT22;26216;53.724;9.898;2023-02-28T12:37:12;10.00;88.40
40516;DHT22;26216;53.724;9.898;2023-02-28T12:39:54;10.10;88.40
40516;DHT22;26216;53.724;9.898;2023-02-28T12:42:30;10.10;84.60
40516;DHT22;26216;53.724;9.898;2023-02-28T12:47:45;10.10;83.20
40516;DHT22;26216;53.724;9.898;2023-02-28T12:50:12;10.10;84.40
40516;DHT22;26216;53.724;9.898;2023-02-28T12:55:32;10.10;86.10
40516;DHT22;26216;53.724;9.898;2023-02-28T13:01:10;10.20;82.80
40516;DHT22;26216;53.724;9.898;2023-02-28T13:04:07;10.30;85.40
40516;DHT22;26216;53.724;9.898;2023-02-28T13:09:20;10.40;82.70
40516;DHT22;26216;53.724;9.898;2023-02-28T13:11:49;10.40;76.50
40516;DHT22;26216;53.724;9.898;2023-02-28T13:17:09;10.30;78.30
40516;DHT22;26216;53.724;9.898;2023-02-28T13:22:39;10.20;75.40
40516;DHT22;26216;53.724;9.898;2023-02-28T13:27:56;10.10;74.10
40516;DHT22;26216;53.724;9.898;2023-02-28T13:41:46;10.00;77.00
40516;DHT22;26216;53.724;9.898;2023-02-28T13:44:21;10.00;77.90
40516;DHT22;26216;53.724;9.898;2023-02-28T13:49:27;10.00;77.70
40516;DHT22;26216;53.724;9.898;2023-02-28T13:58:02;10.20;79.40
40516;DHT22;26216;53.724;9.898;2023-02-28T14:11:35;10.40;78.70
40516;DHT22;26216;53.724;9.898;2023-02-28T14:14:03;10.40;75.20
40516;DHT22;26216;53.724;9.898;2023-02-28T14:16:41;10.40;77.70
40516;DHT22;26216;53.724;9.898;2023-02-28T14:19:22;10.40;74.20
40516;DHT22;26216;53.724;9.898;2023-02-28T14:22:35;10.30;73.00
40516;DHT22;26216;53.724;9.898;2023-02-28T14:28:19;10.20;70.70
40516;DHT22;26216;53.724;9.898;2023-02-28T14:30:55;10.10;71.90
40516;DHT22;26216;53.724;9.898;2023-02-28T14:33:37;10.10;72.40
40516;DHT22;26216;53.724;9.898;2023-02-28T14:36:25;10.10;72.70
40516;DHT22;26216;53.724;9.898;2023-02-28T14:38:56;10.00;73.80
40516;DHT22;26216;53.724;9.898;2023-02-28T14:43:59;10.10;75.50
40516;DHT22;26216;53.724;9.898;2023-02-28T14:46:37;10.10;74.20
40516;DHT22;26216;53.724;9.898;2023-02-28T14:49:28;10.00;70.60
40516;DHT22;26216;53.724;9.898;2023-02-28T14:52:29;10.00;72.70
40516;DHT22;26216;53.724;9.898;2023-02-28T14:54:57;10.00;70.80
40516;DHT22;26216;53.724;9.898;2023-02-28T14:57:30;10.00;75.50
40516;DHT22;26216;53.724;9.898;2023-02-28T15:00:00;10.10;76.40
40516;DHT22;26216;53.724;9.898;2023-02-28T15:02:31;10.10;76.70
40516;DHT22;26216;53.724;9.898;2023-02-28T15:05:02;10.10;75.70
40516;DHT22;26216;53.724;9.898;2023-02-28T15:07:36;10.10;75.00
40516;DHT22;26216;53.724;9.898;2023-02-28T15:12:40;10.10;75.10
40516;DHT22;26216;53.724;9.898;2023-02-28T15:15:15;10.10;73.80
40516;DHT22;26216;53.724;9.898;2023-02-28T15:17:46;10.10;73.60
40516;DHT22;26216;53.724;9.898;2023-02-28T15:20:16;10.10;73.10
40516;DHT22;26216;53.724;9.898;2023-02-28T15:22:45;10.10;72.90
40516;DHT22;26216;53.724;9.898;2023-02-28T15:25:17;10.10;72.50
40516;DHT22;26216;53.724;9.898;2023-02-28T15:27:47;10.10;74.20
40516;DHT22;26216;53.724;9.898;2023-02-28T15:33:23;10.10;75.10
40516;DHT22;26216;53.724;9.898;2023-02-28T15:35:48;10.10;74.90
40516;DHT22;26216;53.724;9.898;2023-02-28T15:38:25;10.00;75.40
40516;DHT22;26216;53.724;9.898;2023-02-28T15:40:57;10.00;75.10
40516;DHT22;26216;53.724;9.898;2023-02-28T15:43:36;10.00;74.80
40516;DHT22;26216;53.724;9.898;2023-02-28T15:46:08;10.00;74.50
40516;DHT22;26216;53.724;9.898;2023-02-28T15:48:59;10.00;74.80
40516;DHT22;26216;53.724;9.898;2023-02-28T15:54:04;9.90;75.20
40516;DHT22;26216;53.724;9.898;2023-02-28T15:56:47;9.80;75.60
40516;DHT22;26216;53.724;9.898;2023-02-28T15:59:21;9.80;74.90
40516;DHT22;26216;53.724;9.898;2023-02-28T16:01:47;9.80;75.30
40516;DHT22;26216;53.724;9.898;2023-02-28T16:04:27;9.70;74.40
40516;DHT22;26216;53.724;9.898;2023-02-28T16:07:03;9.70;75.40
40516;DHT22;26216;53.724;9.898;2023-02-28T16:09:30;9.60;76.70
40516;DHT22;26216;53.724;9.898;2023-02-28T16:12:00;9.60;76.70
40516;DHT22;26216;53.724;9.898;2023-02-28T16:14:31;9.60;76.40
40516;DHT22;26216;53.724;9.898;2023-02-28T16:17:04;9.60;76.00
40516;DHT22;26216;53.724;9.898;2023-02-28T16:19:30;9.50;76.10
40516;DHT22;26216;53.724;9.898;2023-02-28T16:21:57;9.50;76.50
40516;DHT22;26216;53.724;9.898;2023-02-28T16:24:23;9.50;76.90
40516;DHT22;26216;53.724;9.898;2023-02-28T16:26:53;9.40;76.50
40516;DHT22;26216;53.724;9.898;2023-02-28T16:29:27;9.40;76.50
40516;DHT22;26216;53.724;9.898;2023-02-28T16:31:54;9.40;77.00
40516;DHT22;26216;53.724;9.898;2023-02-28T16:34:20;9.30;77.20
40516;DHT22;26216;53.724;9.898;2023-02-28T16:36:47;9.20;77.40
40516;DHT22;26216;53.724;9.898;2023-02-28T16:39:14;9.20;77.80
40516;DHT22;26216;53.724;9.898;2023-02-28T16:41:43;9.20;78.10
40516;DHT22;26216;53.724;9.898;2023-02-28T16:44:25;9.10;78.20
40516;DHT22;26216;53.724;9.898;2023-02-28T16:46:52;9.00;78.40
40516;DHT22;26216;53.724;9.898;2023-02-28T16:49:18;9.00;78.50
40516;DHT22;26216;53.724;9.898;2023-02-28T16:51:44;8.90;78.40
40516;DHT22;26216;53.724;9.898;2023-02-28T16:54:10;8.80;79.10
40516;DHT22;26216;53.724;9.898;2023-02-28T16:56:39;8.80;79.00
40516;DHT22;26216;53.724;9.898;2023-02-28T16:59:08;8.70;79.30
40516;DHT22;26216;53.724;9.898;2023-02-28T17:01:34;8.60;79.30
40516;DHT22;26216;53.724;9.898;2023-02-28T17:04:00;8.60;79.50
40516;DHT22;26216;53.724;9.898;2023-02-28T17:06:28;8.40;79.70
40516;DHT22;26216;53.724;9.898;2023-02-28T17:08:56;8.40;79.70
40516;DHT22;26216;53.724;9.898;2023-02-28T17:11:24;8.30;79.90
40516;DHT22;26216;53.724;9.898;2023-02-28T17:13:50;8.20;80.20
40516;DHT22;26216;53.724;9.898;2023-02-28T17:16:30;8.20;80.50
40516;DHT22;26216;53.724;9.898;2023-02-28T17:19:02;8.10;80.80
40516;DHT22;26216;53.724;9.898;2023-02-28T17:21:29;8.00;80.90
40516;DHT22;26216;53.724;9.898;2023-02-28T17:23:55;7.90;81.10
40516;DHT22;26216;53.724;9.898;2023-02-28T17:26:22;7.80;81.30
40516;DHT22;26216;53.724;9.898;2023-02-28T17:28:52;7.70;81.30
40516;DHT22;26216;53.724;9.898;2023-02-28T17:31:20;7.70;81.50
40516;DHT22;26216;53.724;9.898;2023-02-28T17:33:47;7.60;81.70
40516;DHT22;26216;53.724;9.898;2023-02-28T17:36:24;7.50;81.80
40516;DHT22;26216;53.724;9.898;2023-02-28T17:38:52;7.40;82.10
40516;DHT22;26216;53.724;9.898;2023-02-28T17:41:19;7.40;82.30
40516;DHT22;26216;53.724;9.898;2023-02-28T17:43:45;7.30;82.50
40516;DHT22;26216;53.724;9.898;2023-02-28T17:46:21;7.20;82.70
40516;DHT22;26216;53.724;9.898;2023-02-28T17:48:52;7.10;83.00
40516;DHT22;26216;53.724;9.898;2023-02-28T17:51:23;7.10;83.10
40516;DHT22;26216;53.724;9.898;2023-02-28T17:53:50;7.00;83.30
40516;DHT22;26216;53.724;9.898;2023-02-28T17:56:19;6.90;83.50
40516;DHT22;26216;53.724;9.898;2023-02-28T17:58:46;6.80;83.80
40516;DHT22;26216;53.724;9.898;2023-02-28T18:01:12;6.80;83.90
40516;DHT22;26216;53.724;9.898;2023-02-28T18:03:39;6.70;83.90
40516;DHT22;26216;53.724;9.898;2023-02-28T18:06:05;6.60;84.10
40516;DHT22;26216;53.724;9.898;2023-02-28T18:08:32;6.60;84.20
40516;DHT22;26216;53.724;9.898;2023-02-28T18:11:01;6.50;84.10
40516;DHT22;26216;53.724;9.898;2023-02-28T18:13:27;6.40;84.20
40516;DHT22;26216;53.724;9.898;2023-02-28T18:15:54;6.30;84.20
40516;DHT22;26216;53.724;9.898;2023-02-28T18:18:19;6.30;84.40
40516;DHT22;26216;53.724;9.898;2023-02-28T18:20:46;6.20;84.50
40516;DHT22;26216;53.724;9.898;2023-02-28T18:23:15;6.20;84.70
40516;DHT22;26216;53.724;9.898;2023-02-28T18:25:42;6.10;84.80
40516;DHT22;26216;53.724;9.898;2023-02-28T18:28:08;6.10;84.90
40516;DHT22;26216;53.724;9.898;2023-02-28T18:30:36;6.00;85.10
40516;DHT22;26216;53.724;9.898;2023-02-28T18:33:03;5.90;85.20
40516;DHT22;26216;53.724;9.898;2023-02-28T18:35:30;5.80;85.40